sensor_id;sensor_type;location;lat;lon;timestamp;temperature;humidity
1800;DHT22;919;48.274;12.292;2022-09-01T00:02:07;15.30;99.90
1800;DHT22;919;48.274;12.292;2022-09-01T00:04:36;15.40;99.90
1800;DHT22;919;48.274;12.292;2022-09-01T00:07:04;15.40;99.90
1800;DHT22;919;48.274;12.292;2022-09-01T00:09:30;15.40;99.90
1800;DHT22;919;48.274;12.292;2022-09-01T00:11:57;15.40;99.90
1800;DHT22;919;48.274;12.292;2022-09-01T00:14:27;15.40;99.90
1800;DHT22;919;48.274;12.292;2022-09-01T00:16:54;15.40;99.90
1800;DHT22;919;48.274;12.292;2022-09-01T00:19:23;15.40;99.90
1800;DHT22;919;48.274;12.292;2022-09-01T00:21:50;15.40;99.90
1800;DHT22;919;48.274;12.292;2022-09-01T00:24:17;15.40;99.90
1800;DHT22;919;48.274;12.292;2022-09-01T00:26:44;15.30;99.90
1800;DHT22;919;48.274;12.292;2022-09-01T00:29:12;15.30;99.90
1800;DHT22;919;48.274;12.292;2022-09-01T00:31:39;15.30;99.90
1800;DHT22;919;48.274;12.292;2022-09-01T00:34:06;15.30;99.90
1800;DHT22;919;48.274;12.292;2022-09-01T00:36:34;15.20;99.90
1800;DHT22;919;48.274;12.292;2022-09-01T00:39:02;15.20;99.90
1800;DHT22;919;48.274;12.292;2022-09-01T00:41:31;15.10;99.90
1800;DHT22;919;48.274;12.292;2022-09-01T00:44:01;15.00;99.90
1800;DHT22;919;48.274;12.292;2022-09-01T00:46:32;14.90;99.90
1800;DHT22;919;48.274;12.292;2022-09-01T00:49:02;14.80;99.90
1800;DHT22;919;48.274;12.292;2022-09-01T00:51:30;14.80;99.90
1800;DHT22;919;48.274;12.292;2022-09-01T00:54:00;14.80;99.90
1800;DHT22;919;48.274;12.292;2022-09-01T00:56:28;14.80;99.90
1800;DHT22;919;48.274;12.292;2022-09-01T00:58:58;14.90;99.90
1800;DHT22;919;48.274;12.292;2022-09-01T01:01:25;14.90;99.90
1800;DHT22;919;48.274;12.292;2022-09-01T01:03:52;15.00;99.90
1800;DHT22;919;48.274;12.292;2022-09-01T01:06:19;14.90;99.90
1800;DHT22;919;48.274;12.292;2022-09-01T01:08:51;14.90;99.90
1800;DHT22;919;48.274;12.292;2022-09-01T01:11:25;14.90;99.90
1800;DHT22;919;48.274;12.292;2022-09-01T01:13:55;14.90;99.90
1800;DHT22;919;48.274;12.292;2022-09-01T01:16:24;14.90;99.90
1800;DHT22;919;48.274;12.292;2022-09-01T01:18:52;14.90;99.90
1800;DHT22;919;48.274;12.292;2022-09-01T01:21:24;14.90;99.90
1800;DHT22;919;48.274;12.292;2022-09-01T01:24:22;14.90;99.90
1800;DHT22;919;48.274;12.292;2022-09-01T01:26:49;14.90;99.90
1800;DHT22;919;48.274;12.292;2022-09-01T01:29:16;14.90;99.90
1800;DHT22;919;48.274;12.292;2022-09-01T01:31:43;14.90;99.90
1800;DHT22;919;48.274;12.292;2022-09-01T01:34:12;14.90;99.90
1800;DHT22;919;48.274;12.292;2022-09-01T01:36:39;14.90;99.90
1800;DHT22;919;48.274;12.292;2022-09-01T01:39:09;14.90;99.90
1800;DHT22;919;48.274;12.292;2022-09-01T01:41:40;14.90;99.90
1800;DHT22;919;48.274;12.292;2022-09-01T01:44:08;14.90;99.90
1800;DHT22;919;48.274;12.292;2022-09-01T01:46:40;15.00;99.90
1800;DHT22;919;48.274;12.292;2022-09-01T01:49:07;15.10;99.90
1800;DHT22;919;48.274;12.292;2022-09-01T01:51:34;15.00;99.90
1800;DHT22;919;48.274;12.292;2022-09-01T01:54:01;15.00;99.90
1800;DHT22;919;48.274;12.292;2022-09-01T01:56:31;15.10;99.90
1800;DHT22;919;48.274;12.292;2022-09-01T01:58:59;15.10;99.90
1800;DHT22;919;48.274;12.292;2022-09-01T02:01:28;15.10;99.90
1800;DHT22;919;48.274;12.292;2022-09-01T02:03:57;15.10;99.90
1800;DHT22;919;48.274;12.292;2022-09-01T02:06:26;15.10;99.90
1800;DHT22;919;48.274;12.292;2022-09-01T02:08:55;15.00;99.90
1800;DHT22;919;48.274;12.292;2022-09-01T02:11:23;15.00;99.90
1800;DHT22;919;48.274;12.292;2022-09-01T02:13:51;14.90;99.90
1800;DHT22;919;48.274;12.292;2022-09-01T02:16:24;14.90;99.90
1800;DHT22;919;48.274;12.292;2022-09-01T02:18:51;14.90;99.90
1800;DHT22;919;48.274;12.292;2022-09-01T02:21:21;14.90;99.90
1800;DHT22;919;48.274;12.292;2022-09-01T02:23:50;14.80;99.90
1800;DHT22;919;48.274;12.292;2022-09-01T02:26:22;14.90;99.90
1800;DHT22;919;48.274;12.292;2022-09-01T02:28:54;14.90;99.90
1800;DHT22;919;48.274;12.292;2022-09-01T02:31:23;14.80;99.90
1800;DHT22;919;48.274;12.292;2022-09-01T02:33:52;14.70;99.90
1800;DHT22;919;48.274;12.292;2022-09-01T02:36:19;14.50;99.90
1800;DHT22;919;48.274;12.292;2022-09-01T02:38:47;14.40;99.90
1800;DHT22;919;48.274;12.292;2022-09-01T02:41:17;14.40;99.90
1800;DHT22;919;48.274;12.292;2022-09-01T02:43:48;14.40;99.90
1800;DHT22;919;48.274;12.292;2022-09-01T02:46:15;14.40;99.90
1800;DHT22;919;48.274;12.292;2022-09-01T02:48:43;14.50;99.90
1800;DHT22;919;48.274;12.292;2022-09-01T02:51:18;14.50;99.90
1800;DHT22;919;48.274;12.292;2022-09-01T02:53:46;14.40;99.90
1800;DHT22;919;48.274;12.292;2022-09-01T02:56:18;14.50;99.90
1800;DHT22;919;48.274;12.292;2022-09-01T02:58:47;14.40;99.90
1800;DHT22;919;48.274;12.292;2022-09-01T03:01:19;14.40;99.90
1800;DHT22;919;48.274;12.292;2022-09-01T03:03:51;14.40;99.90
1800;DHT22;919;48.274;12.292;2022-09-01T03:06:19;14.40;99.90
1800;DHT22;919;48.274;12.292;2022-09-01T03:08:48;14.40;99.90
1800;DHT22;919;48.274;12.292;2022-09-01T03:11:16;14.40;99.90
1800;DHT22;919;48.274;12.292;2022-09-01T03:13:43;14.40;99.90
1800;DHT22;919;48.274;12.292;2022-09-01T03:16:11;14.40;99.90
1800;DHT22;919;48.274;12.292;2022-09-01T03:18:38;14.50;99.90
1800;DHT22;919;48.274;12.292;2022-09-01T03:21:07;14.50;99.90
1800;DHT22;919;48.274;12.292;2022-09-01T03:23:34;14.50;99.90
1800;DHT22;919;48.274;12.292;2022-09-01T03:26:02;14.50;99.90
1800;DHT22;919;48.274;12.292;2022-09-01T03:28:29;14.50;99.90
1800;DHT22;919;48.274;12.292;2022-09-01T03:30:57;14.40;99.90
1800;DHT22;919;48.274;12.292;2022-09-01T03:33:26;14.30;99.90
1800;DHT22;919;48.274;12.292;2022-09-01T03:35:54;14.30;99.90
1800;DHT22;919;48.274;12.292;2022-09-01T03:38:24;14.30;99.90
1800;DHT22;919;48.274;12.292;2022-09-01T03:40:53;14.40;99.90
1800;DHT22;919;48.274;12.292;2022-09-01T03:43:24;14.40;99.90
1800;DHT22;919;48.274;12.292;2022-09-01T03:45:53;14.50;99.90
1800;DHT22;919;48.274;12.292;2022-09-01T03:48:21;14.50;99.90
1800;DHT22;919;48.274;12.292;2022-09-01T03:50:50;14.50;99.90
1800;DHT22;919;48.274;12.292;2022-09-01T03:53:19;14.50;99.90
1800;DHT22;919;48.274;12.292;2022-09-01T03:55:48;14.40;99.90
1800;DHT22;919;48.274;12.292;2022-09-01T03:58:18;14.40;99.90
1800;DHT22;919;48.274;12.292;2022-09-01T04:00:47;14.40;99.90
1800;DHT22;919;48.274;12.292;2022-09-01T04:03:15;14.40;99.90
1800;DHT22;919;48.274;12.292;2022-09-01T04:05:49;14.40;99.90
1800;DHT22;919;48.274;12.292;2022-09-01T04:08:18;14.40;99.90
1800;DHT22;919;48.274;12.292;2022-09-01T04:10:49;14.40;99.90
1800;DHT22;919;48.274;12.292;2022-09-01T04:13:16;14.30;99.90
1800;DHT22;919;48.274;12.292;2022-09-01T04:15:44;14.30;99.90
1800;DHT22;919;48.274;12.292;2022-09-01T04:18:11;14.30;99.90
1800;DHT22;919;48.274;12.292;2022-09-01T04:20:46;14.30;99.90
1800;DHT22;919;48.274;12.292;2022-09-01T04:23:15;14.30;99.90
1800;DHT22;919;48.274;12.292;2022-09-01T04:25:53;14.40;99.90
1800;DHT22;919;48.274;12.292;2022-09-01T04:28:22;14.40;99.90
1800;DHT22;919;48.274;12.292;2022-09-01T04:30:50;14.50;99.90
1800;DHT22;919;48.274;12.292;2022-09-01T04:33:21;14.50;99.90
1800;DHT22;919;48.274;12.292;2022-09-01T04:35:49;14.60;99.90
1800;DHT22;919;48.274;12.292;2022-09-01T04:38:21;14.60;99.90
1800;DHT22;919;48.274;12.292;2022-09-01T04:40:49;14.60;99.90
1800;DHT22;919;48.274;12.292;2022-09-01T04:43:17;14.60;99.90
1800;DHT22;919;48.274;12.292;2022-09-01T04:45:45;14.60;99.90
1800;DHT22;919;48.274;12.292;2022-09-01T04:48:13;14.60;99.90
1800;DHT22;919;48.274;12.292;2022-09-01T04:50:40;14.60;99.90
1800;DHT22;919;48.274;12.292;2022-09-01T04:53:07;14.60;99.90
1800;DHT22;919;48.274;12.292;2022-09-01T04:55:37;14.60;99.90
1800;DHT22;919;48.274;12.292;2022-09-01T04:58:05;14.60;99.90
1800;DHT22;919;48.274;12.292;2022-09-01T05:00:33;14.70;99.90
1800;DHT22;919;48.274;12.292;2022-09-01T05:03:02;14.70;99.90
1800;DHT22;919;48.274;12.292;2022-09-01T05:05:35;14.70;99.90
1800;DHT22;919;48.274;12.292;2022-09-01T05:08:04;14.70;99.90
1800;DHT22;919;48.274;12.292;2022-09-01T05:10:31;14.80;99.90
1800;DHT22;919;48.274;12.292;2022-09-01T05:13:02;14.80;99.90
1800;DHT22;919;48.274;12.292;2022-09-01T05:15:36;14.80;99.90
1800;DHT22;919;48.274;12.292;2022-09-01T05:18:04;14.80;99.90
1800;DHT22;919;48.274;12.292;2022-09-01T05:20:36;14.90;99.90
1800;DHT22;919;48.274;12.292;2022-09-01T05:23:04;14.90;99.90
1800;DHT22;919;48.274;12.292;2022-09-01T05:25:36;15.00;99.90
1800;DHT22;919;48.274;12.292;2022-09-01T05:28:05;15.10;99.90
1800;DHT22;919;48.274;12.292;2022-09-01T05:30:36;15.20;99.90
1800;DHT22;919;48.274;12.292;2022-09-01T05:33:04;15.20;99.90
1800;DHT22;919;48.274;12.292;2022-09-01T05:35:35;15.20;99.90
1800;DHT22;919;48.274;12.292;2022-09-01T05:38:02;15.20;99.90
1800;DHT22;919;48.274;12.292;2022-09-01T05:40:29;15.30;99.90
1800;DHT22;919;48.274;12.292;2022-09-01T05:42:56;15.30;99.90
1800;DHT22;919;48.274;12.292;2022-09-01T05:45:23;15.40;99.90
1800;DHT22;919;48.274;12.292;2022-09-01T05:47:52;15.50;99.90
1800;DHT22;919;48.274;12.292;2022-09-01T05:50:19;15.50;99.90
1800;DHT22;919;48.274;12.292;2022-09-01T05:52:46;15.60;99.90
1800;DHT22;919;48.274;12.292;2022-09-01T05:55:15;15.60;99.90
1800;DHT22;919;48.274;12.292;2022-09-01T05:57:42;15.70;99.90
1800;DHT22;919;48.274;12.292;2022-09-01T06:00:13;15.80;99.90
1800;DHT22;919;48.274;12.292;2022-09-01T06:02:42;15.90;99.90
1800;DHT22;919;48.274;12.292;2022-09-01T06:05:11;15.90;99.90
1800;DHT22;919;48.274;12.292;2022-09-01T06:07:39;15.90;99.90
1800;DHT22;919;48.274;12.292;2022-09-01T06:10:07;16.00;99.90
1800;DHT22;919;48.274;12.292;2022-09-01T06:12:34;16.00;99.90
1800;DHT22;919;48.274;12.292;2022-09-01T06:15:01;16.10;99.90
1800;DHT22;919;48.274;12.292;2022-09-01T06:17:28;16.20;99.90
1800;DHT22;919;48.274;12.292;2022-09-01T06:19:55;16.40;99.90
1800;DHT22;919;48.274;12.292;2022-09-01T06:22:26;16.40;99.90
1800;DHT22;919;48.274;12.292;2022-09-01T06:24:53;16.40;99.90
1800;DHT22;919;48.274;12.292;2022-09-01T06:27:23;16.40;99.90
1800;DHT22;919;48.274;12.292;2022-09-01T06:29:51;16.40;99.90
1800;DHT22;919;48.274;12.292;2022-09-01T06:32:19;16.30;99.90
1800;DHT22;919;48.274;12.292;2022-09-01T06:34:45;16.30;99.90
1800;DHT22;919;48.274;12.292;2022-09-01T06:37:14;16.30;99.90
1800;DHT22;919;48.274;12.292;2022-09-01T06:39:43;16.20;99.90
1800;DHT22;919;48.274;12.292;2022-09-01T06:42:10;16.10;99.90
1800;DHT22;919;48.274;12.292;2022-09-01T06:44:37;16.10;99.90
1800;DHT22;919;48.274;12.292;2022-09-01T06:47:05;16.10;99.90
1800;DHT22;919;48.274;12.292;2022-09-01T06:49:32;16.10;99.90
1800;DHT22;919;48.274;12.292;2022-09-01T06:51:59;16.30;99.90
1800;DHT22;919;48.274;12.292;2022-09-01T06:54:27;16.40;99.90
1800;DHT22;919;48.274;12.292;2022-09-01T06:56:56;16.40;99.90
1800;DHT22;919;48.274;12.292;2022-09-01T06:59:27;16.60;99.90
1800;DHT22;919;48.274;12.292;2022-09-01T07:01:54;16.60;99.90
1800;DHT22;919;48.274;12.292;2022-09-01T07:04:25;16.70;99.90
1800;DHT22;919;48.274;12.292;2022-09-01T07:06:54;16.70;99.90
1800;DHT22;919;48.274;12.292;2022-09-01T07:09:21;16.70;99.90
1800;DHT22;919;48.274;12.292;2022-09-01T07:11:48;16.80;99.90
1800;DHT22;919;48.274;12.292;2022-09-01T07:14:18;16.90;99.90
1800;DHT22;919;48.274;12.292;2022-09-01T07:16:46;17.00;99.90
1800;DHT22;919;48.274;12.292;2022-09-01T07:19:13;17.00;99.90
1800;DHT22;919;48.274;12.292;2022-09-01T07:21:41;17.10;99.90
1800;DHT22;919;48.274;12.292;2022-09-01T07:24:08;17.10;99.90
1800;DHT22;919;48.274;12.292;2022-09-01T07:26:36;17.20;99.90
1800;DHT22;919;48.274;12.292;2022-09-01T07:29:05;17.20;99.90
1800;DHT22;919;48.274;12.292;2022-09-01T07:31:35;17.20;99.90
1800;DHT22;919;48.274;12.292;2022-09-01T07:34:05;17.30;99.90
1800;DHT22;919;48.274;12.292;2022-09-01T07:36:38;17.30;99.90
1800;DHT22;919;48.274;12.292;2022-09-01T07:39:05;17.50;99.90
1800;DHT22;919;48.274;12.292;2022-09-01T07:41:32;17.50;99.90
1800;DHT22;919;48.274;12.292;2022-09-01T07:44:01;17.50;99.90
1800;DHT22;919;48.274;12.292;2022-09-01T07:46:30;17.40;99.90
1800;DHT22;919;48.274;12.292;2022-09-01T07:48:59;17.50;99.90
1800;DHT22;919;48.274;12.292;2022-09-01T07:51:28;17.50;99.90
1800;DHT22;919;48.274;12.292;2022-09-01T07:53:57;17.50;99.90
1800;DHT22;919;48.274;12.292;2022-09-01T07:56:27;17.60;99.90
1800;DHT22;919;48.274;12.292;2022-09-01T07:58:55;17.60;99.90
1800;DHT22;919;48.274;12.292;2022-09-01T08:01:23;17.60;99.90
1800;DHT22;919;48.274;12.292;2022-09-01T08:03:52;17.70;99.90
1800;DHT22;919;48.274;12.292;2022-09-01T08:06:22;17.80;99.90
1800;DHT22;919;48.274;12.292;2022-09-01T08:08:52;17.70;99.90
1800;DHT22;919;48.274;12.292;2022-09-01T08:11:21;17.80;99.90
1800;DHT22;919;48.274;12.292;2022-09-01T08:13:50;17.80;99.90
1800;DHT22;919;48.274;12.292;2022-09-01T08:16:17;17.90;99.90
1800;DHT22;919;48.274;12.292;2022-09-01T08:18:44;18.00;99.90
1800;DHT22;919;48.274;12.292;2022-09-01T08:21:12;18.00;99.90
1800;DHT22;919;48.274;12.292;2022-09-01T08:23:41;18.00;99.90
1800;DHT22;919;48.274;12.292;2022-09-01T08:26:10;18.00;99.90
1800;DHT22;919;48.274;12.292;2022-09-01T08:28:37;18.10;99.90
1800;DHT22;919;48.274;12.292;2022-09-01T08:31:06;18.10;99.90
1800;DHT22;919;48.274;12.292;2022-09-01T08:33:33;18.10;99.90
1800;DHT22;919;48.274;12.292;2022-09-01T08:35:59;18.00;99.90
1800;DHT22;919;48.274;12.292;2022-09-01T08:38:26;18.10;99.90
1800;DHT22;919;48.274;12.292;2022-09-01T08:40:56;18.10;99.90
1800;DHT22;919;48.274;12.292;2022-09-01T08:43:34;18.20;99.90
1800;DHT22;919;48.274;12.292;2022-09-01T08:46:10;18.20;99.90
1800;DHT22;919;48.274;12.292;2022-09-01T08:48:39;18.30;99.90
1800;DHT22;919;48.274;12.292;2022-09-01T08:51:14;18.40;99.90
1800;DHT22;919;48.274;12.292;2022-09-01T08:53:48;18.50;99.90
1800;DHT22;919;48.274;12.292;2022-09-01T08:56:17;18.50;99.90
1800;DHT22;919;48.274;12.292;2022-09-01T08:58:44;18.50;99.90
1800;DHT22;919;48.274;12.292;2022-09-01T09:01:19;18.50;99.90
1800;DHT22;919;48.274;12.292;2022-09-01T09:04:11;18.70;99.90
1800;DHT22;919;48.274;12.292;2022-09-01T09:06:49;18.90;99.90
1800;DHT22;919;48.274;12.292;2022-09-01T09:09:19;19.00;99.90
1800;DHT22;919;48.274;12.292;2022-09-01T09:12:02;19.10;99.90
1800;DHT22;919;48.274;12.292;2022-09-01T09:14:48;19.10;99.90
1800;DHT22;919;48.274;12.292;2022-09-01T09:17:20;19.20;99.90
1800;DHT22;919;48.274;12.292;2022-09-01T09:19:49;19.20;99.90
1800;DHT22;919;48.274;12.292;2022-09-01T09:22:17;19.10;99.90
1800;DHT22;919;48.274;12.292;2022-09-01T09:24:49;19.10;99.90
1800;DHT22;919;48.274;12.292;2022-09-01T09:27:19;19.10;99.90
1800;DHT22;919;48.274;12.292;2022-09-01T09:29:47;19.30;99.90
1800;DHT22;919;48.274;12.292;2022-09-01T09:32:17;19.50;99.90
1800;DHT22;919;48.274;12.292;2022-09-01T09:34:43;19.90;99.90
1800;DHT22;919;48.274;12.292;2022-09-01T09:37:23;19.90;99.90
1800;DHT22;919;48.274;12.292;2022-09-01T09:40:04;19.90;99.90
1800;DHT22;919;48.274;12.292;2022-09-01T09:42:34;20.20;99.90
1800;DHT22;919;48.274;12.292;2022-09-01T09:45:05;20.50;99.90
1800;DHT22;919;48.274;12.292;2022-09-01T09:47:40;21.10;99.90
1800;DHT22;919;48.274;12.292;2022-09-01T09:50:16;20.90;99.90
1800;DHT22;919;48.274;12.292;2022-09-01T09:52:44;20.70;99.90
1800;DHT22;919;48.274;12.292;2022-09-01T09:55:21;20.90;99.90
1800;DHT22;919;48.274;12.292;2022-09-01T09:57:51;20.70;99.90
1800;DHT22;919;48.274;12.292;2022-09-01T10:00:21;20.10;99.90
1800;DHT22;919;48.274;12.292;2022-09-01T10:02:53;19.60;99.90
1800;DHT22;919;48.274;12.292;2022-09-01T10:05:34;19.40;99.90
1800;DHT22;919;48.274;12.292;2022-09-01T10:08:02;19.00;99.90
1800;DHT22;919;48.274;12.292;2022-09-01T10:10:37;18.80;99.90
1800;DHT22;919;48.274;12.292;2022-09-01T10:13:10;19.00;99.90
1800;DHT22;919;48.274;12.292;2022-09-01T10:15:38;19.40;99.90
1800;DHT22;919;48.274;12.292;2022-09-01T10:18:08;19.70;99.90
1800;DHT22;919;48.274;12.292;2022-09-01T10:20:44;20.20;99.90
1800;DHT22;919;48.274;12.292;2022-09-01T10:23:13;20.20;99.90
1800;DHT22;919;48.274;12.292;2022-09-01T10:25:40;20.00;99.90
1800;DHT22;919;48.274;12.292;2022-09-01T10:28:14;20.00;99.90
1800;DHT22;919;48.274;12.292;2022-09-01T10:30:44;19.90;99.90
1800;DHT22;919;48.274;12.292;2022-09-01T10:33:13;19.80;99.90
1800;DHT22;919;48.274;12.292;2022-09-01T10:35:42;19.90;99.90
1800;DHT22;919;48.274;12.292;2022-09-01T10:38:14;20.30;99.90
1800;DHT22;919;48.274;12.292;2022-09-01T10:40:44;20.80;99.90
1800;DHT22;919;48.274;12.292;2022-09-01T10:43:33;21.10;99.90
1800;DHT22;919;48.274;12.292;2022-09-01T10:46:08;21.20;99.90
1800;DHT22;919;48.274;12.292;2022-09-01T10:48:35;21.10;99.90
1800;DHT22;919;48.274;12.292;2022-09-01T10:51:41;21.10;99.90
1800;DHT22;919;48.274;12.292;2022-09-01T10:57:33;21.20;99.90
1800;DHT22;919;48.274;12.292;2022-09-01T11:00:47;20.90;99.90
1800;DHT22;919;48.274;12.292;2022-09-01T11:06:55;20.80;99.90
1800;DHT22;919;48.274;12.292;2022-09-01T11:09:25;20.90;99.90
1800;DHT22;919;48.274;12.292;2022-09-01T11:14:59;21.10;99.90
1800;DHT22;919;48.274;12.292;2022-09-01T11:17:29;21.40;99.90
1800;DHT22;919;48.274;12.292;2022-09-01T11:19:59;21.80;99.90
1800;DHT22;919;48.274;12.292;2022-09-01T11:22:31;22.40;99.90
1800;DHT22;919;48.274;12.292;2022-09-01T11:25:13;22.80;99.90
1800;DHT22;919;48.274;12.292;2022-09-01T11:28:01;22.90;99.90
1800;DHT22;919;48.274;12.292;2022-09-01T11:30:41;22.30;99.90
1800;DHT22;919;48.274;12.292;2022-09-01T11:33:40;21.40;99.90
1800;DHT22;919;48.274;12.292;2022-09-01T11:36:14;21.40;99.90
1800;DHT22;919;48.274;12.292;2022-09-01T11:38:47;21.40;99.90
1800;DHT22;919;48.274;12.292;2022-09-01T11:41:23;21.40;99.90
1800;DHT22;919;48.274;12.292;2022-09-01T11:43:52;21.30;99.90
1800;DHT22;919;48.274;12.292;2022-09-01T11:46:24;21.30;99.90
1800;DHT22;919;48.274;12.292;2022-09-01T11:48:54;21.20;99.90
1800;DHT22;919;48.274;12.292;2022-09-01T11:51:22;21.20;99.90
1800;DHT22;919;48.274;12.292;2022-09-01T11:53:51;21.20;99.90
1800;DHT22;919;48.274;12.292;2022-09-01T11:56:26;21.30;99.90
1800;DHT22;919;48.274;12.292;2022-09-01T11:58:53;21.20;99.90
1800;DHT22;919;48.274;12.292;2022-09-01T12:01:22;21.20;99.90
1800;DHT22;919;48.274;12.292;2022-09-01T12:03:50;21.00;99.90
1800;DHT22;919;48.274;12.292;2022-09-01T12:06:21;21.00;99.90
1800;DHT22;919;48.274;12.292;2022-09-01T12:08:54;21.00;99.90
1800;DHT22;919;48.274;12.292;2022-09-01T12:11:24;21.00;99.90
1800;DHT22;919;48.274;12.292;2022-09-01T12:13:56;20.70;99.90
1800;DHT22;919;48.274;12.292;2022-09-01T12:16:24;20.60;99.90
1800;DHT22;919;48.274;12.292;2022-09-01T12:18:52;20.80;99.90
1800;DHT22;919;48.274;12.292;2022-09-01T12:21:23;21.30;99.90
1800;DHT22;919;48.274;12.292;2022-09-01T12:23:51;21.80;99.90
1800;DHT22;919;48.274;12.292;2022-09-01T12:26:21;22.00;99.90
1800;DHT22;919;48.274;12.292;2022-09-01T12:28:49;22.30;99.90
1800;DHT22;919;48.274;12.292;2022-09-01T12:31:18;22.20;99.90
1800;DHT22;919;48.274;12.292;2022-09-01T12:33:46;22.20;99.90
1800;DHT22;919;48.274;12.292;2022-09-01T12:36:24;22.30;99.90
1800;DHT22;919;48.274;12.292;2022-09-01T12:38:51;22.50;99.90
1800;DHT22;919;48.274;12.292;2022-09-01T12:41:31;22.70;99.90
1800;DHT22;919;48.274;12.292;2022-09-01T12:44:26;22.80;99.90
1800;DHT22;919;48.274;12.292;2022-09-01T12:46:54;22.80;99.90
1800;DHT22;919;48.274;12.292;2022-09-01T12:49:24;22.70;99.90
1800;DHT22;919;48.274;12.292;2022-09-01T12:52:10;22.70;99.90
1800;DHT22;919;48.274;12.292;2022-09-01T12:54:38;22.70;99.90
1800;DHT22;919;48.274;12.292;2022-09-01T12:57:05;22.50;99.90
1800;DHT22;919;48.274;12.292;2022-09-01T12:59:32;22.40;99.90
1800;DHT22;919;48.274;12.292;2022-09-01T13:02:26;22.50;99.90
1800;DHT22;919;48.274;12.292;2022-09-01T13:04:53;22.80;99.90
1800;DHT22;919;48.274;12.292;2022-09-01T13:07:21;23.00;99.90
1800;DHT22;919;48.274;12.292;2022-09-01T13:09:47;23.40;99.90
1800;DHT22;919;48.274;12.292;2022-09-01T13:12:17;23.60;99.90
1800;DHT22;919;48.274;12.292;2022-09-01T13:14:44;23.90;99.90
1800;DHT22;919;48.274;12.292;2022-09-01T13:17:12;23.20;99.90
1800;DHT22;919;48.274;12.292;2022-09-01T13:19:38;22.70;99.90
1800;DHT22;919;48.274;12.292;2022-09-01T13:22:05;22.20;99.90
1800;DHT22;919;48.274;12.292;2022-09-01T13:24:33;21.80;99.90
1800;DHT22;919;48.274;12.292;2022-09-01T13:27:00;21.40;99.90
1800;DHT22;919;48.274;12.292;2022-09-01T13:29:26;21.30;99.90
1800;DHT22;919;48.274;12.292;2022-09-01T13:31:53;21.30;99.90
1800;DHT22;919;48.274;12.292;2022-09-01T13:34:20;21.40;99.90
1800;DHT22;919;48.274;12.292;2022-09-01T13:36:46;21.40;99.90
1800;DHT22;919;48.274;12.292;2022-09-01T13:39:13;21.50;99.90
1800;DHT22;919;48.274;12.292;2022-09-01T13:41:41;21.50;99.90
1800;DHT22;919;48.274;12.292;2022-09-01T13:44:08;22.00;99.90
1800;DHT22;919;48.274;12.292;2022-09-01T13:46:35;22.40;99.90
1800;DHT22;919;48.274;12.292;2022-09-01T13:49:02;21.80;99.90
1800;DHT22;919;48.274;12.292;2022-09-01T13:51:29;21.30;99.90
1800;DHT22;919;48.274;12.292;2022-09-01T13:53:56;21.20;99.90
1800;DHT22;919;48.274;12.292;2022-09-01T13:56:23;21.00;99.90
1800;DHT22;919;48.274;12.292;2022-09-01T13:58:51;21.00;99.90
1800;DHT22;919;48.274;12.292;2022-09-01T14:01:17;21.40;99.90
1800;DHT22;919;48.274;12.292;2022-09-01T14:03:44;21.40;99.90
1800;DHT22;919;48.274;12.292;2022-09-01T14:06:12;21.90;99.90
1800;DHT22;919;48.274;12.292;2022-09-01T14:08:39;22.00;99.90
1800;DHT22;919;48.274;12.292;2022-09-01T14:11:06;22.20;99.90
1800;DHT22;919;48.274;12.292;2022-09-01T14:13:33;22.10;99.90
1800;DHT22;919;48.274;12.292;2022-09-01T14:16:09;22.30;99.90
1800;DHT22;919;48.274;12.292;2022-09-01T14:18:36;22.70;99.90
1800;DHT22;919;48.274;12.292;2022-09-01T14:21:03;22.80;99.90
1800;DHT22;919;48.274;12.292;2022-09-01T14:23:30;22.60;99.90
1800;DHT22;919;48.274;12.292;2022-09-01T14:25:57;22.40;99.90
1800;DHT22;919;48.274;12.292;2022-09-01T14:28:24;22.00;99.90
1800;DHT22;919;48.274;12.292;2022-09-01T14:30:50;21.70;99.90
1800;DHT22;919;48.274;12.292;2022-09-01T14:33:19;21.40;99.90
1800;DHT22;919;48.274;12.292;2022-09-01T14:35:49;21.30;99.90
1800;DHT22;919;48.274;12.292;2022-09-01T14:38:16;21.10;99.90
1800;DHT22;919;48.274;12.292;2022-09-01T14:40:46;21.00;99.90
1800;DHT22;919;48.274;12.292;2022-09-01T14:43:13;21.00;99.90
1800;DHT22;919;48.274;12.292;2022-09-01T14:45:41;20.90;99.90
1800;DHT22;919;48.274;12.292;2022-09-01T14:48:10;20.90;99.90
1800;DHT22;919;48.274;12.292;2022-09-01T14:50:41;20.90;99.90
1800;DHT22;919;48.274;12.292;2022-09-01T14:53:08;20.70;99.90
1800;DHT22;919;48.274;12.292;2022-09-01T14:55:35;20.60;99.90
1800;DHT22;919;48.274;12.292;2022-09-01T14:58:02;20.40;99.90
1800;DHT22;919;48.274;12.292;2022-09-01T15:00:30;20.30;99.90
1800;DHT22;919;48.274;12.292;2022-09-01T15:03:00;20.30;99.90
1800;DHT22;919;48.274;12.292;2022-09-01T15:05:27;20.10;99.90
1800;DHT22;919;48.274;12.292;2022-09-01T15:07:55;20.10;99.90
1800;DHT22;919;48.274;12.292;2022-09-01T15:10:24;20.10;99.90
1800;DHT22;919;48.274;12.292;2022-09-01T15:12:53;20.10;99.90
1800;DHT22;919;48.274;12.292;2022-09-01T15:15:20;20.10;99.90
1800;DHT22;919;48.274;12.292;2022-09-01T15:17:47;20.10;99.90
1800;DHT22;919;48.274;12.292;2022-09-01T15:20:14;20.10;99.90
1800;DHT22;919;48.274;12.292;2022-09-01T15:23:00;20.20;99.90
1800;DHT22;919;48.274;12.292;2022-09-01T15:25:27;20.30;99.90
1800;DHT22;919;48.274;12.292;2022-09-01T15:27:54;20.40;99.90
1800;DHT22;919;48.274;12.292;2022-09-01T15:30:20;20.50;99.90
1800;DHT22;919;48.274;12.292;2022-09-01T15:32:49;20.50;99.90
1800;DHT22;919;48.274;12.292;2022-09-01T15:35:18;20.40;99.90
1800;DHT22;919;48.274;12.292;2022-09-01T15:37:46;20.60;99.90
1800;DHT22;919;48.274;12.292;2022-09-01T15:40:14;20.60;99.90
1800;DHT22;919;48.274;12.292;2022-09-01T15:42:42;20.50;99.90
1800;DHT22;919;48.274;12.292;2022-09-01T15:45:10;20.30;99.90
1800;DHT22;919;48.274;12.292;2022-09-01T15:47:37;20.30;99.90
1800;DHT22;919;48.274;12.292;2022-09-01T15:50:07;20.20;99.90
1800;DHT22;919;48.274;12.292;2022-09-01T15:52:46;20.30;99.90
1800;DHT22;919;48.274;12.292;2022-09-01T15:55:16;20.10;99.90
1800;DHT22;919;48.274;12.292;2022-09-01T15:57:42;20.00;99.90
1800;DHT22;919;48.274;12.292;2022-09-01T16:00:10;20.00;99.90
1800;DHT22;919;48.274;12.292;2022-09-01T16:02:37;19.80;99.90
1800;DHT22;919;48.274;12.292;2022-09-01T16:05:05;19.80;99.90
1800;DHT22;919;48.274;12.292;2022-09-01T16:07:32;19.80;99.90
1800;DHT22;919;48.274;12.292;2022-09-01T16:09:59;19.80;99.90
1800;DHT22;919;48.274;12.292;2022-09-01T16:12:27;19.70;99.90
1800;DHT22;919;48.274;12.292;2022-09-01T16:14:55;19.70;99.90
1800;DHT22;919;48.274;12.292;2022-09-01T16:17:27;19.70;99.90
1800;DHT22;919;48.274;12.292;2022-09-01T16:20:08;19.70;99.90
1800;DHT22;919;48.274;12.292;2022-09-01T16:22:39;19.80;99.90
1800;DHT22;919;48.274;12.292;2022-09-01T16:25:13;19.90;99.90
1800;DHT22;919;48.274;12.292;2022-09-01T16:27:44;19.90;99.90
1800;DHT22;919;48.274;12.292;2022-09-01T16:30:13;19.80;99.90